createdAt,value
2022-10-03T00:02:52.378Z,19.17
2022-10-03T00:05:28.140Z,20.20
2022-10-03T00:08:08.327Z,25.30
2022-10-03T00:11:10.156Z,25.63
2022-10-03T00:13:56.288Z,24.42
2022-10-03T00:16:38.145Z,24.27
2022-10-03T00:19:17.492Z,22.08
2022-10-03T00:22:01.057Z,20.95
2022-10-03T00:25:05.040Z,25.88
2022-10-03T00:27:45.281Z,19.70
2022-10-03T00:30:18.295Z,22.27
2022-10-03T00:33:13.656Z,19.52
2022-10-03T00:35:49.285Z,21.42
2022-10-03T00:38:27.929Z,18.10
2022-10-03T00:41:34.660Z,20.20
2022-10-03T00:44:19.905Z,15.07
2022-10-03T00:46:47.558Z,24.83
2022-10-03T00:49:53.054Z,18.33
2022-10-03T00:52:19.537Z,14.60
2022-10-03T00:54:55.029Z,18.30
2022-10-03T00:57:27.680Z,14.13
2022-10-03T01:00:02.475Z,18.58
2022-10-03T01:02:34.672Z,16.95
2022-10-03T01:05:17.552Z,17.48
2022-10-03T01:07:56.168Z,19.30
2022-10-03T01:10:44.484Z,16.63
2022-10-03T01:13:18.674Z,17.83
2022-10-03T01:16:06.999Z,17.83
2022-10-03T01:18:39.650Z,18.05
2022-10-03T01:21:18.383Z,20.38
2022-10-03T01:23:58.796Z,20.55
2022-10-03T01:26:27.995Z,21.95
2022-10-03T01:29:23.707Z,21.88
2022-10-03T01:32:05.234Z,22.13
2022-10-03T01:34:45.079Z,18.50
2022-10-03T01:37:35.292Z,25.83
2022-10-03T01:40:26.292Z,22.13
2022-10-03T01:43:22.064Z,21.73
2022-10-03T01:46:07.138Z,17.58
2022-10-03T01:48:55.890Z,16.42
2022-10-03T01:51:33.561Z,20.90
2022-10-03T01:54:17.191Z,15.48
2022-10-03T01:56:53.907Z,17.40
2022-10-03T01:59:24.971Z,21.23
2022-10-03T02:02:17.966Z,19.80
2022-10-03T02:05:00.154Z,19.42
2022-10-03T02:07:51.113Z,18.88
2022-10-03T02:10:19.244Z,20.00
2022-10-03T02:13:15.901Z,17.80
2022-10-03T02:16:05.681Z,21.90
2022-10-03T02:19:04.140Z,18.57
2022-10-03T02:21:35.563Z,26.73
2022-10-03T02:24:41.686Z,18.13
2022-10-03T02:27:35.980Z,19.83
2022-10-03T02:30:43.124Z,27.23
2022-10-03T02:33:43.558Z,25.55
2022-10-03T02:36:41.062Z,21.55
2022-10-03T02:39:26.258Z,27.02
2022-10-03T02:42:14.513Z,29.73
2022-10-03T02:44:53.520Z,26.10
2022-10-03T02:47:47.352Z,26.10
2022-10-03T02:50:36.442Z,26.15
2022-10-03T02:53:30.856Z,30.23
2022-10-03T02:56:14.092Z,26.17
2022-10-03T02:59:02.567Z,26.75
2022-10-03T03:01:58.619Z,26.92
2022-10-03T03:05:01.612Z,25.13
2022-10-03T03:07:49.856Z,31.23
2022-10-03T03:10:31.202Z,27.48
2022-10-03T03:13:26.296Z,21.45
2022-10-03T03:16:33.132Z,18.83
2022-10-03T03:19:07.879Z,22.55
2022-10-03T03:21:49.556Z,25.38
2022-10-03T03:24:36.321Z,24.60
2022-10-03T03:27:12.548Z,25.55
2022-10-03T03:29:43.727Z,29.63
2022-10-03T03:32:10.967Z,26.00
2022-10-03T03:35:08.401Z,25.25
2022-10-03T03:38:02.545Z,26.10
2022-10-03T03:40:34.913Z,23.70
2022-10-03T03:43:19.976Z,20.38
2022-10-03T03:46:12.066Z,30.25
2022-10-03T03:49:02.192Z,25.58
2022-10-03T03:51:43.005Z,26.25
2022-10-03T03:54:58.261Z,21.35
2022-10-03T03:57:57.087Z,25.65
2022-10-03T04:00:59.441Z,22.05
2022-10-03T04:03:51.187Z,24.00
2022-10-03T04:06:35.686Z,26.42
2022-10-03T04:09:35.280Z,22.52
2022-10-03T04:12:29.738Z,22.77
2022-10-03T04:15:14.981Z,33.97
2022-10-03T04:18:05.658Z,30.02
2022-10-03T04:20:47.092Z,22.98
2022-10-03T04:23:45.713Z,26.75
2022-10-03T04:26:28.680Z,25.35
2022-10-03T04:29:30.450Z,19.08
2022-10-03T04:32:15.476Z,26.00
2022-10-03T04:35:03.588Z,26.50
2022-10-03T04:37:52.587Z,26.67
2022-10-03T04:40:37.921Z,25.33
2022-10-03T04:43:24.961Z,25.33
2022-10-03T04:45:51.454Z,24.92
2022-10-03T04:48:30.835Z,23.20
2022-10-03T04:51:15.865Z,23.98
2022-10-03T04:53:51.881Z,23.92
2022-10-03T04:56:30.477Z,26.10
2022-10-03T04:59:28.809Z,31.60
2022-10-03T05:02:09.330Z,35.67
2022-10-03T05:05:08.330Z,24.73
2022-10-03T05:07:41.513Z,28.52
2022-10-03T05:10:51.055Z,27.45
2022-10-03T05:13:39.408Z,29.92
2022-10-03T05:16:30.395Z,26.23
2022-10-03T05:19:10.083Z,26.25
2022-10-03T05:21:45.528Z,29.92
2022-10-03T05:24:34.489Z,23.75
2022-10-03T05:27:19.521Z,27.65
2022-10-03T05:30:09.826Z,32.58
2022-10-03T05:32:54.605Z,27.55
2022-10-03T05:35:28.833Z,26.65
2022-10-03T05:38:23.656Z,27.73
2022-10-03T05:41:08.827Z,28.30
2022-10-03T05:44:02.638Z,31.88
2022-10-03T05:46:38.746Z,25.65
2022-10-03T05:49:36.364Z,27.17
2022-10-03T05:52:34.441Z,28.02
2022-10-03T05:55:19.632Z,30.52
2022-10-03T05:58:05.647Z,30.52
2022-10-03T06:00:51.960Z,29.75
2022-10-03T06:03:43.194Z,30.00
2022-10-03T06:06:43.611Z,33.65
2022-10-03T06:09:48.466Z,32.22
2022-10-03T06:12:33.197Z,34.25
2022-10-03T06:15:21.589Z,35.45
2022-10-03T06:17:53.932Z,32.08
2022-10-03T06:20:23.470Z,28.40
2022-10-03T06:22:50.134Z,30.80
2022-10-03T06:25:16.597Z,35.47
2022-10-03T06:28:18.355Z,31.02
2022-10-03T06:30:56.792Z,36.63
2022-10-03T06:34:12.492Z,33.33
2022-10-03T06:37:27.059Z,33.28
2022-10-03T06:40:11.665Z,33.50
2022-10-03T06:43:11.584Z,35.85
2022-10-03T06:46:07.895Z,33.78
2022-10-03T06:48:59.375Z,34.05
2022-10-03T06:51:55.016Z,36.20
2022-10-03T06:54:46.740Z,32.75
2022-10-03T06:57:49.215Z,25.77
2022-10-03T07:00:22.550Z,30.45
2022-10-03T07:03:10.938Z,31.70
2022-10-03T07:06:07.029Z,34.28
2022-10-03T07:09:05.601Z,29.25
2022-10-03T07:11:50.276Z,30.55
2022-10-03T07:14:37.038Z,24.33
2022-10-03T07:17:33.321Z,27.02
2022-10-03T07:20:20.174Z,24.80
2022-10-03T07:23:06.285Z,26.55
2022-10-03T07:25:53.585Z,25.02
2022-10-03T07:28:46.028Z,25.05
2022-10-03T07:31:37.382Z,29.55
2022-10-03T07:34:13.111Z,26.48
2022-10-03T07:37:40.308Z,30.08
2022-10-03T07:40:24.934Z,28.08
2022-10-03T07:43:15.902Z,28.60
2022-10-03T07:46:06.335Z,24.33
2022-10-03T07:48:35.946Z,27.48
2022-10-03T07:51:35.600Z,27.17
2022-10-03T07:54:24.588Z,27.70
2022-10-03T07:57:00.751Z,25.45
2022-10-03T08:00:05.718Z,24.52
2022-10-03T08:02:53.258Z,24.70
2022-10-03T08:05:34.796Z,27.55
2022-10-03T08:08:22.232Z,24.08
2022-10-03T08:11:00.422Z,25.70
2022-10-03T08:13:33.898Z,23.25
2022-10-03T08:16:21.731Z,25.40
2022-10-03T08:19:07.202Z,23.85
2022-10-03T08:21:58.708Z,20.17
2022-10-03T08:25:05.129Z,23.65
2022-10-03T08:28:15.330Z,21.55
2022-10-03T08:31:03.908Z,22.10
2022-10-03T08:33:39.490Z,22.63
2022-10-03T08:36:15.458Z,20.95
2022-10-03T08:38:55.818Z,19.27
2022-10-03T08:41:28.188Z,18.83
2022-10-03T08:44:00.338Z,18.88
2022-10-03T08:47:00.109Z,18.55
2022-10-03T08:49:54.040Z,17.57
2022-10-03T08:52:40.289Z,18.65
2022-10-03T08:55:32.243Z,16.05
2022-10-03T08:58:20.441Z,15.68
2022-10-03T09:00:55.855Z,13.77
2022-10-03T09:04:04.187Z,13.38
2022-10-03T09:07:16.706Z,11.65
2022-10-03T09:09:46.905Z,15.25
2022-10-03T09:12:32.194Z,11.27
2022-10-03T09:15:04.659Z,13.55
2022-10-03T09:18:06.233Z,9.65
2022-10-03T09:20:51.066Z,11.25
2022-10-03T09:23:40.711Z,9.65
2022-10-03T09:26:27.798Z,8.77
2022-10-03T09:29:13.059Z,9.43
2022-10-03T09:32:18.492Z,10.32
2022-10-03T09:35:17.651Z,9.70
2022-10-03T09:38:08.939Z,8.73
2022-10-03T09:41:13.284Z,8.82
2022-10-03T09:44:11.248Z,7.05
2022-10-03T09:47:23.902Z,5.75
2022-10-03T09:49:56.127Z,5.93
2022-10-03T09:52:38.248Z,6.68
2022-10-03T09:55:36.415Z,4.68
2022-10-03T09:58:36.670Z,6.75
2022-10-03T10:01:21.059Z,7.45
2022-10-03T10:04:32.407Z,4.18
2022-10-03T10:07:41.101Z,3.35
2022-10-03T10:10:43.963Z,5.20
2022-10-03T10:14:03.282Z,5.72
2022-10-03T10:17:02.712Z,6.63
2022-10-03T10:19:32.139Z,5.95
2022-10-03T10:22:17.651Z,5.00
2022-10-03T10:25:18.404Z,7.80
2022-10-03T10:30:46.642Z,6.18
2022-10-03T10:34:03.605Z,4.90
2022-10-03T10:36:57.614Z,4.10
2022-10-03T10:39:57.587Z,5.82
2022-10-03T10:42:29.997Z,4.38
2022-10-03T10:45:24.491Z,5.18
2022-10-03T10:47:53.590Z,3.78
2022-10-03T10:50:42.122Z,3.15
2022-10-03T10:53:27.508Z,4.43
2022-10-03T10:56:27.761Z,5.25
2022-10-03T10:59:22.573Z,4.75
2022-10-03T11:02:26.886Z,5.22
2022-10-03T11:05:13.906Z,4.53
2022-10-03T11:08:26.628Z,3.15
2022-10-03T11:11:29.164Z,4.57
2022-10-03T11:14:16.694Z,5.28
2022-10-03T11:17:20.902Z,4.80
2022-10-03T11:20:15.808Z,1.92
2022-10-03T11:22:54.125Z,3.83
2022-10-03T11:25:58.143Z,3.90
2022-10-03T11:28:33.700Z,5.40
2022-10-03T11:31:18.813Z,4.38
2022-10-03T11:34:14.052Z,6.18
2022-10-03T11:37:13.395Z,3.55
2022-10-03T11:40:09.613Z,4.28
2022-10-03T11:43:00.393Z,4.85
2022-10-03T11:45:34.733Z,5.18
2022-10-03T11:48:35.480Z,4.95
2022-10-03T11:51:10.671Z,5.38
2022-10-03T11:53:43.592Z,3.58
2022-10-03T11:56:25.028Z,5.32
2022-10-03T11:59:24.803Z,5.88
2022-10-03T12:02:19.361Z,4.82
2022-10-03T12:05:16.556Z,3.15
2022-10-03T12:08:10.109Z,4.75
2022-10-03T12:11:17.984Z,8.38
2022-10-03T12:14:10.184Z,6.68
2022-10-03T12:16:58.848Z,6.38
2022-10-03T12:19:30.916Z,4.72
2022-10-03T12:22:13.510Z,5.70
2022-10-03T12:24:45.251Z,4.88
2022-10-03T12:27:17.506Z,7.40
2022-10-03T12:29:58.817Z,7.43
2022-10-03T12:32:59.408Z,5.18
2022-10-03T12:35:53.716Z,4.95
2022-10-03T12:38:58.827Z,5.97
2022-10-03T12:42:02.955Z,5.93
2022-10-03T12:45:03.645Z,4.55
2022-10-03T12:50:43.253Z,4.18
2022-10-03T12:53:15.975Z,7.60
2022-10-03T12:56:12.113Z,5.30
2022-10-03T12:58:49.949Z,3.00
2022-10-03T13:01:31.524Z,5.35
2022-10-03T13:04:00.866Z,2.58
2022-10-03T13:07:03.236Z,4.50
2022-10-03T13:09:41.993Z,6.15
2022-10-03T13:12:26.954Z,11.98
2022-10-03T13:15:31.462Z,7.10
2022-10-03T13:18:22.701Z,5.75
2022-10-03T13:21:01.248Z,11.70
2022-10-03T13:23:37.240Z,6.35
2022-10-03T13:26:22.029Z,6.05
2022-10-03T13:29:14.110Z,5.22
2022-10-03T13:31:55.418Z,5.25
2022-10-03T13:34:28.130Z,5.28
2022-10-03T13:37:06.548Z,5.10
2022-10-03T13:39:48.436Z,5.93
2022-10-03T13:42:37.145Z,5.05
2022-10-03T13:45:28.278Z,5.85
2022-10-03T13:48:07.667Z,6.57
2022-10-03T13:50:42.908Z,3.67
2022-10-03T13:53:24.710Z,6.03
2022-10-03T13:55:58.592Z,4.53
2022-10-03T13:59:02.444Z,5.72
2022-10-03T14:01:55.316Z,5.35
2022-10-03T14:04:51.737Z,4.88
2022-10-03T14:07:30.267Z,5.45
2022-10-03T14:10:35.948Z,7.35
2022-10-03T14:13:16.926Z,6.57
2022-10-03T14:16:13.300Z,7.13
2022-10-03T14:18:51.630Z,6.57
2022-10-03T14:21:35.338Z,8.57
2022-10-03T14:24:17.054Z,5.30
2022-10-03T14:26:43.538Z,5.32
2022-10-03T14:29:39.668Z,4.22
2022-10-03T14:32:46.128Z,7.25
2022-10-03T14:35:38.287Z,7.07
2022-10-03T14:38:23.621Z,5.28
2022-10-03T14:40:56.795Z,5.30
2022-10-03T14:43:50.618Z,4.55
2022-10-03T14:46:21.898Z,3.50
2022-10-03T14:48:55.884Z,7.00
2022-10-03T14:51:44.215Z,6.30
2022-10-03T14:54:24.388Z,6.75
2022-10-03T14:56:52.571Z,6.65
2022-10-03T14:59:23.349Z,3.97
2022-10-03T15:01:54.309Z,5.40
2022-10-03T15:04:28.622Z,5.70
2022-10-03T15:06:57.903Z,6.57
2022-10-03T15:09:33.833Z,8.05
2022-10-03T15:12:24.163Z,6.00
2022-10-03T15:15:04.932Z,9.60
2022-10-03T15:17:34.881Z,8.75
2022-10-03T15:20:05.409Z,7.57
2022-10-03T15:22:35.752Z,6.78
2022-10-03T15:25:06.835Z,12.85
2022-10-03T15:27:34.826Z,8.55
2022-10-03T15:30:05.685Z,7.72
2022-10-03T15:32:43.898Z,5.35
2022-10-03T15:35:20.072Z,7.95
2022-10-03T15:37:48.326Z,7.70
2022-10-03T15:40:43.494Z,8.30
2022-10-03T15:43:35.920Z,8.00
2022-10-03T15:46:12.091Z,5.15
2022-10-03T15:48:46.624Z,9.35
2022-10-03T15:51:19.737Z,8.13
2022-10-03T15:53:50.383Z,7.40
2022-10-03T15:56:24.538Z,7.32
2022-10-03T15:58:59.959Z,8.93
2022-10-03T16:01:50.787Z,5.88
2022-10-03T16:04:27.927Z,6.55
2022-10-03T16:07:07.848Z,8.30
2022-10-03T16:10:04.234Z,7.88
2022-10-03T16:13:11.630Z,10.15
2022-10-03T16:15:53.457Z,8.13
2022-10-03T16:18:38.387Z,7.82
2022-10-03T16:21:06.518Z,11.15
2022-10-03T16:23:40.519Z,11.38
2022-10-03T16:26:13.171Z,10.30
2022-10-03T16:29:02.443Z,10.20
2022-10-03T16:31:38.363Z,9.60
2022-10-03T16:34:15.465Z,10.77
2022-10-03T16:36:47.607Z,10.02
2022-10-03T16:39:36.118Z,8.73
2022-10-03T16:42:58.886Z,8.68
2022-10-03T16:45:31.093Z,9.35
2022-10-03T16:48:20.938Z,8.43
2022-10-03T16:50:53.453Z,8.48
2022-10-03T16:53:22.407Z,9.98
2022-10-03T16:55:57.872Z,11.30
2022-10-03T16:58:30.561Z,8.13
2022-10-03T17:03:55.205Z,11.75
2022-10-03T17:06:29.665Z,8.68
2022-10-03T17:08:59.701Z,8.65
2022-10-03T17:11:27.545Z,9.10
2022-10-03T17:13:56.296Z,9.43
2022-10-03T17:16:47.298Z,8.43
2022-10-03T17:19:32.898Z,10.35
2022-10-03T17:22:15.397Z,8.55
2022-10-03T17:25:08.657Z,10.15
2022-10-03T17:27:42.261Z,10.98
2022-10-03T17:30:12.339Z,12.02
2022-10-03T17:32:42.927Z,12.10
2022-10-03T17:37:52.152Z,10.65
2022-10-03T17:40:54.592Z,9.52
2022-10-03T17:43:29.976Z,9.73
2022-10-03T17:46:04.073Z,11.38
2022-10-03T17:49:04.097Z,8.73
2022-10-03T17:51:43.533Z,8.45
2022-10-03T17:54:26.175Z,10.88
2022-10-03T17:56:57.822Z,9.07
2022-10-03T17:59:30.336Z,11.27
2022-10-03T18:02:05.923Z,11.77
2022-10-03T18:04:39.493Z,13.77
2022-10-03T18:07:16.404Z,13.50
2022-10-03T18:09:54.924Z,11.27
2022-10-03T18:12:42.138Z,11.25
2022-10-03T18:15:37.545Z,13.60
2022-10-03T18:18:34.374Z,12.75
2022-10-03T18:21:15.261Z,13.73
2022-10-03T18:24:09.512Z,13.20
2022-10-03T18:26:45.149Z,15.00
2022-10-03T18:29:30.348Z,15.85
2022-10-03T18:32:12.519Z,16.67
2022-10-03T18:34:47.332Z,15.90
2022-10-03T18:37:26.031Z,12.93
2022-10-03T18:39:56.093Z,13.73
2022-10-03T18:42:28.233Z,11.85
2022-10-03T18:44:57.682Z,13.18
2022-10-03T18:47:32.150Z,15.55
2022-10-03T18:50:13.882Z,12.50
2022-10-03T18:52:49.747Z,14.02
2022-10-03T18:55:29.580Z,15.35
2022-10-03T18:58:14.801Z,16.02
2022-10-03T19:00:51.820Z,17.83
2022-10-03T19:03:23.256Z,16.63
2022-10-03T19:06:02.855Z,15.48
2022-10-03T19:08:46.695Z,14.60
2022-10-03T19:11:33.778Z,18.45
2022-10-03T19:14:13.884Z,14.77
2022-10-03T19:17:10.345Z,16.60
2022-10-03T19:19:55.378Z,17.23
2022-10-03T19:22:37.066Z,16.58
2022-10-03T19:25:06.626Z,17.17
2022-10-03T19:27:50.070Z,19.85
2022-10-03T19:30:22.917Z,21.77
2022-10-03T19:33:14.222Z,19.50
2022-10-03T19:35:47.598Z,18.42
2022-10-03T19:38:24.961Z,20.60
2022-10-03T19:41:21.793Z,22.85
2022-10-03T19:43:51.138Z,22.13
2022-10-03T19:46:38.746Z,23.38
2022-10-03T19:49:34.163Z,19.80
2022-10-03T19:52:17.587Z,19.95
2022-10-03T19:54:52.940Z,24.10
2022-10-03T19:57:33.090Z,21.95
2022-10-03T20:00:03.845Z,19.98
2022-10-03T20:02:32.152Z,20.98
2022-10-03T20:04:59.991Z,21.25
2022-10-03T20:07:46.658Z,22.15
2022-10-03T20:10:21.695Z,21.65
2022-10-03T20:12:52.729Z,19.60
2022-10-03T20:15:25.382Z,19.40
2022-10-03T20:18:00.380Z,21.15
2022-10-03T20:20:31.518Z,18.98
2022-10-03T20:23:05.009Z,19.05
2022-10-03T20:25:39.595Z,18.95
2022-10-03T20:28:19.639Z,20.90
2022-10-03T20:30:50.545Z,20.52
2022-10-03T20:36:29.247Z,17.92
2022-10-03T20:39:14.235Z,19.50
2022-10-03T20:42:04.617Z,16.75
2022-10-03T20:44:55.495Z,17.73
2022-10-03T20:47:50.420Z,18.90
2022-10-03T20:50:32.423Z,23.13
2022-10-03T20:53:03.409Z,16.00
2022-10-03T20:55:47.437Z,19.90
2022-10-03T20:58:38.754Z,26.48
2022-10-03T21:01:14.490Z,21.00
2022-10-03T21:04:05.102Z,20.55
2022-10-03T21:06:45.480Z,19.88
2022-10-03T21:09:19.304Z,21.08
2022-10-03T21:11:53.734Z,20.60
2022-10-03T21:14:28.068Z,19.42
2022-10-03T21:16:56.143Z,21.13
2022-10-03T21:19:29.732Z,19.52
2022-10-03T21:22:01.921Z,19.58
2022-10-03T21:24:36.806Z,19.33
2022-10-03T21:27:13.348Z,21.02
2022-10-03T21:29:51.714Z,24.48
2022-10-03T21:32:32.856Z,18.08
2022-10-03T21:35:24.958Z,23.00
2022-10-03T21:38:19.532Z,21.95
2022-10-03T21:40:58.248Z,22.27
2022-10-03T21:43:41.900Z,19.05
2022-10-03T21:46:17.062Z,18.75
2022-10-03T21:49:04.551Z,19.20
2022-10-03T21:51:40.651Z,18.15
2022-10-03T21:54:35.222Z,17.38
2022-10-03T21:57:09.969Z,18.15
2022-10-03T21:59:57.941Z,19.13
2022-10-03T22:02:43.278Z,22.42
2022-10-03T22:05:33.579Z,16.75
2022-10-03T22:08:13.553Z,20.17
2022-10-03T22:10:52.777Z,22.83
2022-10-03T22:13:25.461Z,16.35
2022-10-03T22:16:02.794Z,20.10
2022-10-03T22:18:42.022Z,21.92
2022-10-03T22:21:27.204Z,18.00
2022-10-03T22:24:21.373Z,18.83
2022-10-03T22:27:35.115Z,18.95
2022-10-03T22:30:14.872Z,19.45
2022-10-03T22:32:56.157Z,18.53
2022-10-03T22:35:49.127Z,23.00
2022-10-03T22:38:17.548Z,24.17
2022-10-03T22:40:47.177Z,22.48
2022-10-03T22:43:15.468Z,20.92
2022-10-03T22:45:49.912Z,22.30
2022-10-03T22:48:28.219Z,22.92
2022-10-03T22:50:56.483Z,22.70
2022-10-03T22:53:28.369Z,23.63
2022-10-03T22:56:01.313Z,23.95
2022-10-03T22:58:30.259Z,20.42
2022-10-03T23:00:59.635Z,20.88
2022-10-03T23:03:32.587Z,22.15
2022-10-03T23:06:17.790Z,21.10
2022-10-03T23:09:09.355Z,22.83
2022-10-03T23:11:38.761Z,21.58
2022-10-03T23:14:16.803Z,20.17
2022-10-03T23:16:57.038Z,19.63
2022-10-03T23:19:40.691Z,24.33
2022-10-03T23:22:16.354Z,21.38
2022-10-03T23:25:20.921Z,20.25
2022-10-03T23:28:06.317Z,17.75
2022-10-03T23:30:32.891Z,20.00
2022-10-03T23:33:00.585Z,22.75
2022-10-03T23:35:43.293Z,20.83
2022-10-03T23:38:31.466Z,22.05
2022-10-03T23:41:03.016Z,21.55
2022-10-03T23:43:35.985Z,21.20
2022-10-03T23:46:12.993Z,17.02
2022-10-03T23:48:58.328Z,16.17
2022-10-03T23:51:36.501Z,18.95
2022-10-03T23:54:07.203Z,15.23
2022-10-03T23:59:20.272Z,21.25
